createdAt,value
2022-09-22T00:01:43.837Z,192.30
2022-09-22T00:04:14.348Z,122.13
2022-09-22T00:06:47.477Z,133.40
2022-09-22T00:09:18.770Z,188.30
2022-09-22T00:11:49.477Z,100.05
2022-09-22T00:14:21.807Z,81.78
2022-09-22T00:16:52.791Z,103.18
2022-09-22T00:19:23.239Z,82.97
2022-09-22T00:21:52.331Z,77.20
2022-09-22T00:24:23.107Z,97.10
2022-09-22T00:26:53.625Z,88.10
2022-09-22T00:29:23.518Z,86.55
2022-09-22T00:31:52.218Z,115.68
2022-09-22T00:34:25.005Z,90.30
2022-09-22T00:36:53.973Z,126.70
2022-09-22T00:39:22.418Z,221.60
2022-09-22T00:41:53.159Z,151.43
2022-09-22T00:44:39.076Z,87.95
2022-09-22T00:47:15.688Z,81.53
2022-09-22T00:49:49.386Z,93.82
2022-09-22T00:52:22.701Z,93.43
2022-09-22T00:54:53.544Z,167.93
2022-09-22T00:57:25.435Z,77.65
2022-09-22T00:59:56.188Z,85.80
2022-09-22T01:02:25.944Z,177.43
2022-09-22T01:04:54.530Z,88.22
2022-09-22T01:07:26.301Z,91.25
2022-09-22T01:09:55.676Z,89.43
2022-09-22T01:12:26.179Z,87.65
2022-09-22T01:15:18.169Z,119.50
2022-09-22T01:17:59.096Z,228.48
2022-09-22T01:21:10.522Z,74.35
2022-09-22T01:24:20.364Z,87.10
2022-09-22T01:27:08.468Z,106.90
2022-09-22T01:29:59.617Z,235.35
2022-09-22T01:32:33.648Z,94.20
2022-09-22T01:35:10.045Z,100.68
2022-09-22T01:37:45.794Z,239.82
2022-09-22T01:40:20.075Z,92.60
2022-09-22T01:42:53.048Z,105.63
2022-09-22T01:45:26.237Z,261.58
2022-09-22T01:48:00.379Z,220.88
2022-09-22T01:50:33.861Z,89.70
2022-09-22T01:53:08.649Z,77.03
2022-09-22T01:55:39.830Z,68.07
2022-09-22T01:58:12.925Z,77.63
2022-09-22T02:00:45.937Z,70.57
2022-09-22T02:03:20.137Z,105.80
2022-09-22T02:05:52.683Z,111.60
2022-09-22T02:08:28.257Z,127.25
2022-09-22T02:11:00.217Z,114.28
2022-09-22T02:13:28.983Z,52.75
2022-09-22T02:16:03.487Z,68.65
2022-09-22T02:18:38.109Z,76.63
2022-09-22T02:21:06.896Z,74.60
2022-09-22T02:23:36.121Z,182.23
2022-09-22T02:26:07.164Z,81.88
2022-09-22T02:28:39.193Z,75.70
2022-09-22T02:31:20.164Z,171.32
2022-09-22T02:33:51.914Z,88.63
2022-09-22T02:36:35.658Z,81.68
2022-09-22T02:39:09.936Z,110.07
2022-09-22T02:41:47.875Z,207.02
2022-09-22T02:44:21.338Z,205.82
2022-09-22T02:46:54.857Z,83.45
2022-09-22T02:49:27.398Z,102.88
2022-09-22T02:51:56.031Z,102.88
2022-09-22T02:54:24.688Z,112.88
2022-09-22T02:56:53.197Z,197.80
2022-09-22T02:59:21.645Z,118.80
2022-09-22T03:01:50.543Z,243.32
2022-09-22T03:04:19.061Z,279.95
2022-09-22T03:06:48.963Z,131.82
2022-09-22T03:09:18.229Z,208.48
2022-09-22T03:11:46.702Z,398.83
2022-09-22T03:14:15.206Z,220.02
2022-09-22T03:16:43.652Z,104.30
2022-09-22T03:19:12.090Z,116.43
2022-09-22T03:21:40.593Z,97.50
2022-09-22T03:24:10.828Z,99.25
2022-09-22T03:26:39.291Z,135.73
2022-09-22T03:29:07.830Z,156.50
2022-09-22T03:31:36.325Z,211.88
2022-09-22T03:34:04.743Z,282.40
2022-09-22T03:36:33.305Z,142.18
2022-09-22T03:39:01.738Z,199.50
2022-09-22T03:41:32.070Z,380.67
2022-09-22T03:44:00.826Z,176.40
2022-09-22T03:46:30.297Z,269.60
2022-09-22T03:48:58.904Z,485.05
2022-09-22T03:51:27.477Z,186.63
2022-09-22T03:53:56.635Z,306.58
2022-09-22T03:56:25.126Z,243.48
2022-09-22T03:58:55.045Z,154.68
2022-09-22T04:04:33.829Z,167.70
2022-09-22T04:07:07.048Z,110.47
2022-09-22T04:09:36.317Z,95.50
2022-09-22T04:12:04.952Z,91.32
2022-09-22T04:14:34.813Z,371.90
2022-09-22T04:17:05.757Z,200.30
2022-09-22T04:19:35.890Z,176.70
2022-09-22T04:22:04.969Z,535.40
2022-09-22T04:24:33.453Z,170.60
2022-09-22T04:27:18.941Z,123.15
2022-09-22T04:29:50.248Z,240.45
2022-09-22T04:32:19.297Z,496.73
2022-09-22T04:34:47.920Z,146.38
2022-09-22T04:37:16.392Z,143.18
2022-09-22T04:39:44.834Z,85.40
2022-09-22T04:42:13.265Z,138.07
2022-09-22T04:44:41.805Z,139.98
2022-09-22T04:47:11.646Z,229.15
2022-09-22T04:49:40.671Z,215.85
2022-09-22T04:52:09.785Z,174.95
2022-09-22T04:54:38.200Z,334.80
2022-09-22T04:57:06.760Z,368.63
2022-09-22T04:59:35.487Z,438.20
2022-09-22T05:02:03.947Z,457.15
2022-09-22T05:04:33.754Z,271.50
2022-09-22T05:07:02.539Z,258.80
2022-09-22T05:09:31.066Z,479.27
2022-09-22T05:12:01.415Z,489.17
2022-09-22T05:14:31.137Z,221.80
2022-09-22T05:16:59.557Z,468.25
2022-09-22T05:19:28.007Z,563.97
2022-09-22T05:21:57.998Z,819.05
2022-09-22T05:24:26.422Z,119.80
2022-09-22T05:26:55.141Z,151.10
2022-09-22T05:29:27.204Z,615.35
2022-09-22T05:31:56.580Z,532.05
2022-09-22T05:34:25.125Z,282.40
2022-09-22T05:36:53.542Z,721.85
2022-09-22T05:39:23.388Z,711.63
2022-09-22T05:41:51.875Z,29.67
2022-09-22T05:44:21.995Z,24.00
2022-09-22T05:46:50.596Z,25.55
2022-09-22T05:49:19.196Z,24.55
2022-09-22T05:51:47.702Z,23.45
2022-09-22T05:54:19.019Z,25.52
2022-09-22T05:56:52.557Z,21.15
2022-09-22T05:59:20.967Z,25.08
2022-09-22T06:01:49.742Z,27.75
2022-09-22T06:04:18.242Z,25.95
2022-09-22T06:06:46.649Z,23.85
2022-09-22T06:09:15.301Z,19.25
2022-09-22T06:11:43.784Z,29.65
2022-09-22T06:14:13.621Z,18.98
2022-09-22T06:16:43.395Z,21.75
2022-09-22T06:19:11.865Z,17.73
2022-09-22T06:21:40.303Z,17.98
2022-09-22T06:24:08.881Z,22.55
2022-09-22T06:26:37.313Z,27.35
2022-09-22T06:29:06.471Z,22.27
2022-09-22T06:31:36.384Z,25.65
2022-09-22T06:34:07.604Z,23.08
2022-09-22T06:36:36.433Z,26.80
2022-09-22T06:39:06.075Z,24.85
2022-09-22T06:41:35.317Z,23.05
2022-09-22T06:44:05.468Z,23.52
2022-09-22T06:46:36.189Z,25.52
2022-09-22T06:49:04.687Z,570.88
2022-09-22T06:51:35.226Z,22.05
2022-09-22T06:54:05.622Z,21.80
2022-09-22T06:56:37.822Z,26.70
2022-09-22T06:59:13.623Z,26.23
2022-09-22T07:01:45.832Z,24.80
2022-09-22T07:04:14.960Z,23.75
2022-09-22T07:06:43.698Z,24.38
2022-09-22T07:09:12.528Z,22.75
2022-09-22T07:11:41.208Z,24.88
2022-09-22T07:14:10.373Z,25.30
2022-09-22T07:16:41.014Z,28.23
2022-09-22T07:19:10.909Z,26.67
2022-09-22T07:21:40.600Z,25.02
2022-09-22T07:24:09.428Z,24.30
2022-09-22T07:26:39.771Z,26.10
2022-09-22T07:29:13.382Z,22.83
2022-09-22T07:31:43.501Z,22.02
2022-09-22T07:34:14.207Z,25.75
2022-09-22T07:36:42.685Z,23.65
2022-09-22T07:39:12.235Z,20.48
2022-09-22T07:41:43.776Z,25.67
2022-09-22T07:44:31.539Z,24.52
2022-09-22T07:47:00.823Z,22.92
2022-09-22T07:49:30.895Z,19.98
2022-09-22T07:51:59.582Z,21.30
2022-09-22T07:54:29.035Z,23.08
2022-09-22T07:56:59.380Z,26.17
2022-09-22T07:59:28.501Z,23.83
2022-09-22T08:01:57.498Z,32.38
2022-09-22T08:04:26.804Z,30.13
2022-09-22T08:06:56.817Z,30.48
2022-09-22T08:09:26.040Z,34.92
2022-09-22T08:11:55.225Z,32.50
2022-09-22T08:14:24.221Z,26.00
2022-09-22T08:16:54.067Z,24.55
2022-09-22T08:19:24.880Z,28.02
2022-09-22T08:21:54.782Z,22.98
2022-09-22T08:24:25.029Z,25.63
2022-09-22T08:26:54.877Z,25.50
2022-09-22T08:29:24.522Z,29.95
2022-09-22T08:31:54.357Z,25.95
2022-09-22T08:34:23.291Z,29.30
2022-09-22T08:36:51.781Z,28.60
2022-09-22T08:39:20.482Z,25.80
2022-09-22T08:42:09.426Z,483.70
2022-09-22T08:44:43.595Z,766.53
2022-09-22T08:47:38.661Z,362.10
2022-09-22T08:50:37.349Z,699.85
2022-09-22T08:53:10.313Z,208.10
2022-09-22T08:55:44.274Z,260.63
2022-09-22T08:58:32.752Z,472.90
2022-09-22T09:01:11.405Z,569.03
2022-09-22T09:03:54.990Z,686.83
2022-09-22T09:06:32.255Z,831.47
2022-09-22T09:09:27.251Z,796.70
2022-09-22T09:12:16.754Z,891.15
2022-09-22T09:15:07.519Z,901.05
2022-09-22T09:17:39.174Z,904.63
2022-09-22T09:20:18.101Z,901.10
2022-09-22T09:22:50.716Z,885.22
2022-09-22T09:25:24.690Z,914.20
2022-09-22T09:27:58.380Z,927.53
2022-09-22T09:30:33.804Z,914.55
2022-09-22T09:33:04.962Z,920.08
2022-09-22T09:35:44.310Z,926.28
2022-09-22T09:38:16.404Z,959.40
2022-09-22T09:40:54.531Z,991.10
2022-09-22T09:43:25.244Z,990.00
2022-09-22T09:46:04.176Z,687.53
2022-09-22T09:48:41.056Z,662.45
2022-09-22T09:51:13.047Z,884.45
2022-09-22T09:53:45.584Z,830.90
2022-09-22T09:56:24.299Z,838.53
2022-09-22T09:59:14.494Z,852.28
2022-09-22T10:01:47.145Z,942.80
2022-09-22T10:04:28.970Z,958.13
2022-09-22T10:07:10.694Z,986.30
2022-09-22T10:09:39.229Z,973.15
2022-09-22T10:12:21.325Z,1003.40
2022-09-22T10:14:52.597Z,965.38
2022-09-22T10:17:25.404Z,985.65
2022-09-22T10:19:54.216Z,989.33
2022-09-22T10:22:28.179Z,1035.90
2022-09-22T10:24:59.508Z,1042.90
2022-09-22T10:27:29.200Z,959.22
2022-09-22T10:30:23.866Z,292.48
2022-09-22T10:33:12.715Z,252.95
2022-09-22T10:35:43.224Z,242.55
2022-09-22T10:38:21.005Z,173.35
2022-09-22T10:40:54.780Z,157.23
2022-09-22T10:43:37.149Z,170.55
2022-09-22T10:46:29.306Z,112.90
2022-09-22T10:49:07.520Z,62.90
2022-09-22T10:51:47.732Z,60.10
2022-09-22T10:54:30.105Z,84.45
2022-09-22T10:57:09.237Z,82.93
2022-09-22T11:00:04.269Z,59.45
2022-09-22T11:03:09.204Z,81.10
2022-09-22T11:06:15.110Z,96.10
2022-09-22T11:09:09.183Z,83.72
2022-09-22T11:12:04.806Z,96.70
2022-09-22T11:14:46.553Z,75.22
2022-09-22T11:17:31.429Z,74.63
2022-09-22T11:20:22.000Z,29.23
2022-09-22T11:23:17.741Z,45.83
2022-09-22T11:26:02.119Z,50.80
2022-09-22T11:28:57.048Z,59.30
2022-09-22T11:31:44.022Z,47.15
2022-09-22T11:34:34.651Z,54.35
2022-09-22T11:37:29.279Z,47.15
2022-09-22T11:40:22.055Z,48.22
2022-09-22T11:43:09.463Z,71.30
2022-09-22T11:45:49.444Z,64.43
2022-09-22T11:48:36.240Z,55.85
2022-09-22T11:51:32.175Z,69.20
2022-09-22T11:54:19.160Z,90.63
2022-09-22T11:56:52.716Z,78.22
2022-09-22T11:59:39.328Z,79.63
2022-09-22T12:02:18.780Z,63.22
2022-09-22T12:04:54.100Z,72.07
2022-09-22T12:07:29.381Z,84.20
2022-09-22T12:10:02.200Z,88.70
2022-09-22T12:12:34.504Z,88.30
2022-09-22T12:15:09.046Z,78.15
2022-09-22T12:17:42.289Z,70.30
2022-09-22T12:20:22.605Z,91.38
2022-09-22T12:23:13.158Z,96.68
2022-09-22T12:25:49.059Z,56.90
2022-09-22T12:28:23.023Z,43.50
2022-09-22T12:31:13.035Z,25.50
2022-09-22T12:33:48.672Z,32.38
2022-09-22T12:36:18.581Z,40.83
2022-09-22T12:38:47.709Z,22.77
2022-09-22T12:41:21.479Z,22.52
2022-09-22T12:43:51.522Z,20.25
2022-09-22T12:46:28.020Z,16.48
2022-09-22T12:48:56.597Z,39.22
2022-09-22T12:51:33.497Z,102.82
2022-09-22T12:54:43.679Z,16.52
2022-09-22T12:57:28.581Z,14.63
2022-09-22T13:00:08.528Z,20.85
2022-09-22T13:02:44.240Z,44.60
2022-09-22T13:05:35.078Z,66.85
2022-09-22T13:08:04.473Z,52.03
2022-09-22T13:10:42.411Z,57.03
2022-09-22T13:13:12.461Z,28.67
2022-09-22T13:15:59.541Z,49.00
2022-09-22T13:18:33.574Z,81.13
2022-09-22T13:21:03.593Z,118.75
2022-09-22T13:23:32.181Z,113.90
2022-09-22T13:26:07.884Z,99.43
2022-09-22T13:28:36.371Z,106.20
2022-09-22T13:31:14.295Z,101.00
2022-09-22T13:33:43.369Z,104.78
2022-09-22T13:36:15.347Z,97.38
2022-09-22T13:38:47.036Z,108.75
2022-09-22T13:41:20.868Z,137.23
2022-09-22T13:43:54.393Z,60.40
2022-09-22T13:46:27.541Z,106.70
2022-09-22T13:48:58.803Z,170.32
2022-09-22T13:51:27.970Z,168.63
2022-09-22T13:53:58.745Z,173.05
2022-09-22T13:56:27.876Z,181.48
2022-09-22T13:59:00.049Z,159.57
2022-09-22T14:01:32.034Z,169.60
2022-09-22T14:04:00.782Z,186.95
2022-09-22T14:06:33.939Z,211.63
2022-09-22T14:09:02.810Z,219.00
2022-09-22T14:11:33.272Z,200.25
2022-09-22T14:14:03.758Z,285.75
2022-09-22T14:16:40.369Z,278.92
2022-09-22T14:19:15.430Z,191.25
2022-09-22T14:21:50.553Z,203.00
2022-09-22T14:24:20.005Z,189.80
2022-09-22T14:26:50.427Z,205.95
2022-09-22T14:29:24.063Z,253.63
2022-09-22T14:31:57.688Z,230.60
2022-09-22T14:34:31.316Z,195.85
2022-09-22T14:37:02.406Z,243.15
2022-09-22T14:39:34.386Z,207.52
2022-09-22T14:42:10.341Z,241.75
2022-09-22T14:44:45.845Z,244.55
2022-09-22T14:47:39.433Z,230.88
2022-09-22T14:50:11.349Z,212.63
2022-09-22T14:52:43.514Z,274.70
2022-09-22T14:55:19.099Z,254.52
2022-09-22T14:57:50.513Z,262.10
2022-09-22T15:00:37.123Z,220.77
2022-09-22T15:03:19.216Z,241.90
2022-09-22T15:05:48.121Z,254.40
2022-09-22T15:08:18.889Z,231.98
2022-09-22T15:10:54.909Z,251.82
2022-09-22T15:13:32.250Z,276.10
2022-09-22T15:16:00.919Z,272.10
2022-09-22T15:18:31.320Z,276.92
2022-09-22T15:21:04.289Z,192.48
2022-09-22T15:23:41.152Z,133.85
2022-09-22T15:26:17.866Z,139.18
2022-09-22T15:28:48.595Z,174.48
2022-09-22T15:31:22.476Z,241.50
2022-09-22T15:33:52.674Z,289.38
2022-09-22T15:36:23.443Z,306.10
2022-09-22T15:38:53.293Z,311.08
2022-09-22T15:41:21.681Z,295.40
2022-09-22T15:43:50.370Z,305.02
2022-09-22T15:46:29.355Z,317.60
2022-09-22T15:49:03.593Z,332.08
2022-09-22T15:51:33.013Z,311.13
2022-09-22T15:54:01.432Z,372.67
2022-09-22T15:56:31.624Z,342.33
2022-09-22T15:59:02.125Z,390.52
2022-09-22T16:01:30.637Z,399.17
2022-09-22T16:04:00.980Z,391.98
2022-09-22T16:06:29.752Z,378.75
2022-09-22T16:08:58.616Z,417.95
2022-09-22T16:11:29.926Z,421.70
2022-09-22T16:14:01.207Z,264.33
2022-09-22T16:16:30.262Z,158.10
2022-09-22T16:19:01.147Z,166.55
2022-09-22T16:21:31.306Z,158.93
2022-09-22T16:24:03.770Z,182.02
2022-09-22T16:26:33.657Z,174.45
2022-09-22T16:29:03.461Z,200.48
2022-09-22T16:31:32.158Z,222.00
2022-09-22T16:34:03.557Z,165.43
2022-09-22T16:36:34.282Z,189.57
2022-09-22T16:39:03.590Z,213.50
2022-09-22T16:41:34.016Z,183.25
2022-09-22T16:44:03.589Z,208.43
2022-09-22T16:46:35.206Z,231.57
2022-09-22T16:49:07.630Z,184.45
2022-09-22T16:51:38.281Z,182.93
2022-09-22T16:54:07.882Z,207.85
2022-09-22T16:56:39.089Z,211.48
2022-09-22T16:59:08.189Z,231.50
2022-09-22T17:01:38.143Z,299.65
2022-09-22T17:04:09.666Z,396.17
2022-09-22T17:06:40.838Z,447.65
2022-09-22T17:09:10.557Z,422.73
2022-09-22T17:11:40.808Z,598.90
2022-09-22T17:14:12.747Z,735.90
2022-09-22T17:16:42.556Z,798.42
2022-09-22T17:19:16.403Z,846.13
2022-09-22T17:21:45.916Z,804.72
2022-09-22T17:24:15.201Z,856.35
2022-09-22T17:26:47.444Z,822.45
2022-09-22T17:29:17.124Z,835.30
2022-09-22T17:31:47.410Z,831.80
2022-09-22T17:34:17.384Z,843.63
2022-09-22T17:36:46.208Z,806.00
2022-09-22T17:39:14.731Z,848.88
2022-09-22T17:41:46.923Z,833.90
2022-09-22T17:44:21.052Z,809.50
2022-09-22T17:47:07.885Z,595.22
2022-09-22T17:49:55.015Z,508.60
2022-09-22T17:52:41.529Z,385.83
2022-09-22T17:55:16.245Z,333.40
2022-09-22T17:57:46.217Z,329.83
2022-09-22T18:00:16.755Z,385.13
2022-09-22T18:02:45.332Z,284.95
2022-09-22T18:05:17.701Z,177.80
2022-09-22T18:07:47.843Z,279.58
2022-09-22T18:10:19.806Z,225.63
2022-09-22T18:12:48.254Z,271.55
2022-09-22T18:15:17.889Z,203.07
2022-09-22T18:17:46.411Z,145.00
2022-09-22T18:20:20.817Z,236.63
2022-09-22T18:22:50.301Z,218.20
2022-09-22T18:25:23.555Z,256.17
2022-09-22T18:27:53.731Z,276.30
2022-09-22T18:30:23.151Z,282.58
2022-09-22T18:32:51.863Z,177.65
2022-09-22T18:35:21.825Z,203.40
2022-09-22T18:37:51.262Z,155.77
2022-09-22T18:40:19.970Z,161.40
2022-09-22T18:42:48.736Z,110.15
2022-09-22T18:45:17.507Z,147.65
2022-09-22T18:47:45.964Z,144.38
2022-09-22T18:50:14.455Z,141.35
2022-09-22T18:52:46.888Z,112.05
2022-09-22T18:55:18.479Z,126.78
2022-09-22T18:57:48.155Z,117.97
2022-09-22T19:00:21.009Z,105.20
2022-09-22T19:02:50.229Z,124.20
2022-09-22T19:05:19.088Z,132.73
2022-09-22T19:07:49.157Z,173.35
2022-09-22T19:10:22.046Z,102.88
2022-09-22T19:12:51.118Z,125.32
2022-09-22T19:15:20.981Z,126.47
2022-09-22T19:17:50.745Z,131.63
2022-09-22T19:20:22.987Z,134.35
2022-09-22T19:22:54.132Z,141.90
2022-09-22T19:25:23.606Z,155.57
2022-09-22T19:27:53.584Z,166.90
2022-09-22T19:30:24.924Z,236.82
2022-09-22T19:32:56.074Z,277.02
2022-09-22T19:35:24.583Z,226.63
2022-09-22T19:37:54.532Z,155.93
2022-09-22T19:40:25.248Z,145.98
2022-09-22T19:42:54.764Z,194.50
2022-09-22T19:45:24.282Z,235.75
2022-09-22T19:47:52.953Z,299.15
2022-09-22T19:50:21.414Z,250.85
2022-09-22T19:52:50.174Z,247.27
2022-09-22T19:55:21.361Z,257.88
2022-09-22T19:57:52.475Z,330.65
2022-09-22T20:00:26.301Z,353.08
2022-09-22T20:02:58.863Z,266.17
2022-09-22T20:05:29.892Z,277.42
2022-09-22T20:07:58.428Z,277.80
2022-09-22T20:10:28.950Z,322.02
2022-09-22T20:12:59.677Z,326.42
2022-09-22T20:15:29.336Z,350.13
2022-09-22T20:17:57.840Z,339.98
2022-09-22T20:20:28.957Z,420.30
2022-09-22T20:23:00.553Z,288.80
2022-09-22T20:25:34.171Z,337.58
2022-09-22T20:28:03.097Z,454.40
2022-09-22T20:30:31.694Z,379.85
2022-09-22T20:33:00.471Z,396.40
2022-09-22T20:35:29.058Z,339.70
2022-09-22T20:37:59.445Z,509.67
2022-09-22T20:40:29.233Z,389.63
2022-09-22T20:42:59.274Z,496.17
2022-09-22T20:45:28.372Z,412.08
2022-09-22T20:47:57.153Z,381.27
2022-09-22T20:50:25.850Z,439.80
2022-09-22T20:52:55.552Z,510.73
2022-09-22T20:55:24.182Z,458.73
2022-09-22T20:57:52.808Z,497.92
2022-09-22T21:00:22.982Z,524.17
2022-09-22T21:02:52.526Z,558.70
2022-09-22T21:05:21.858Z,499.42
2022-09-22T21:08:11.789Z,533.30
2022-09-22T21:10:39.441Z,627.15
2022-09-22T21:13:08.155Z,629.60
2022-09-22T21:15:38.716Z,597.58
2022-09-22T21:18:07.414Z,656.53
2022-09-22T21:20:36.401Z,624.97
2022-09-22T21:23:05.062Z,809.30
2022-09-22T21:25:33.703Z,27.85
2022-09-22T21:28:02.472Z,23.08
2022-09-22T21:30:31.234Z,28.15
2022-09-22T21:33:02.763Z,30.23
2022-09-22T21:35:31.390Z,26.20
2022-09-22T21:38:00.089Z,25.73
2022-09-22T21:40:28.772Z,26.55
2022-09-22T21:42:57.450Z,28.60
2022-09-22T21:45:26.185Z,30.20
2022-09-22T21:47:54.737Z,28.63
2022-09-22T21:50:24.676Z,27.98
2022-09-22T21:52:53.938Z,25.58
2022-09-22T21:55:22.819Z,38.10
2022-09-22T21:57:53.760Z,35.97
2022-09-22T22:00:48.051Z,28.23
2022-09-22T22:03:28.756Z,31.30
2022-09-22T22:06:09.250Z,40.92
2022-09-22T22:08:42.202Z,41.53
2022-09-22T22:11:12.902Z,30.27
2022-09-22T22:13:43.243Z,28.08
2022-09-22T22:16:13.710Z,26.50
2022-09-22T22:18:43.187Z,27.20
2022-09-22T22:21:15.487Z,31.08
2022-09-22T22:23:45.450Z,30.52
2022-09-22T22:26:16.531Z,29.98
2022-09-22T22:28:46.043Z,31.60
2022-09-22T22:31:16.674Z,29.92
2022-09-22T22:33:46.150Z,37.40
2022-09-22T22:36:17.984Z,27.60
2022-09-22T22:38:47.061Z,31.63
2022-09-22T22:41:17.257Z,25.33
2022-09-22T22:43:48.193Z,35.10
2022-09-22T22:46:19.035Z,35.95
2022-09-22T22:48:49.124Z,33.15
2022-09-22T22:51:21.631Z,32.70
2022-09-22T22:53:50.848Z,34.58
2022-09-22T22:56:21.858Z,33.95
2022-09-22T22:58:52.109Z,32.42
2022-09-22T23:01:22.408Z,34.00
2022-09-22T23:03:53.987Z,37.70
2022-09-22T23:06:25.776Z,27.67
2022-09-22T23:08:55.265Z,26.63
2022-09-22T23:11:27.272Z,35.60
2022-09-22T23:13:59.660Z,33.35
2022-09-22T23:16:29.437Z,35.20
2022-09-22T23:19:01.471Z,33.53
2022-09-22T23:21:31.958Z,35.20
2022-09-22T23:24:01.067Z,36.35
2022-09-22T23:26:30.161Z,32.90
2022-09-22T23:28:59.568Z,37.22
2022-09-22T23:31:28.309Z,37.13
2022-09-22T23:33:57.781Z,35.45
2022-09-22T23:36:28.820Z,34.17
2022-09-22T23:39:02.025Z,31.80
2022-09-22T23:41:30.669Z,33.75
2022-09-22T23:43:59.057Z,32.58
2022-09-22T23:46:28.143Z,34.65
2022-09-22T23:48:56.655Z,37.13
2022-09-22T23:51:25.157Z,32.50
2022-09-22T23:53:53.729Z,32.83
2022-09-22T23:56:23.601Z,36.08
2022-09-22T23:58:52.525Z,39.10
